Time;durP1;ratioP1;P1;durP2;ratioP2;P2;SDS_P1;SDS_P2;PMS_P1;PMS_P2;Temp;Humidity;BMP_temperature;BMP_pressure;BME280_temperature;BME280_humidity;BME280_pressure;Samples;Min_cycle;Max_cycle;Signal;HPM_P1;HPM_P2
2023/10/02 00:01:47;;;;;;;11.27;6.70;;;19.50;99.90;;;;;;5089894;28;20625;-75
2023/10/02 00:04:19;;;;;;;10.27;7.20;;;19.50;99.90;;;;;;5091201;28;20645;-74
2023/10/02 00:06:46;;;;;;;9.30;5.43;;;19.50;99.90;;;;;;5081774;28;20601;-74
2023/10/02 00:09:15;;;;;;;16.00;7.50;;;19.50;99.90;;;;;;5089623;28;20660;-74
2023/10/02 00:11:41;;;;;;;11.20;7.07;;;19.50;99.90;;;;;;5094638;28;20566;-74
2023/10/02 00:14:25;;;;;;;11.83;6.57;;;19.40;99.90;;;;;;5090678;28;20628;-74
2023/10/02 00:16:59;;;;;;;12.83;7.73;;;19.40;99.90;;;;;;5090746;28;20988;-74
2023/10/02 00:19:37;;;;;;;11.93;7.87;;;19.40;99.90;;;;;;5089226;28;20581;-74
2023/10/02 00:22:41;;;;;;;8.43;6.20;;;19.30;99.90;;;;;;5089234;28;20585;-75
2023/10/02 00:25:17;;;;;;;9.20;6.33;;;19.30;99.90;;;;;;5089327;28;20618;-74
2023/10/02 00:27:48;;;;;;;13.97;7.60;;;19.30;99.90;;;;;;5088684;28;20585;-74
2023/10/02 00:30:15;;;;;;;11.10;7.23;;;19.20;99.90;;;;;;5072530;28;20641;-74
2023/10/02 00:32:45;;;;;;;11.90;6.87;;;19.20;99.90;;;;;;5089205;28;21186;-75
2023/10/02 00:35:11;;;;;;;10.57;6.70;;;19.20;99.90;;;;;;5072015;28;20595;-75
2023/10/02 00:37:44;;;;;;;10.93;6.70;;;19.20;99.90;;;;;;5090298;28;21131;-75
2023/10/02 00:40:23;;;;;;;12.30;7.60;;;19.20;99.90;;;;;;5072728;28;20946;-75
2023/10/02 00:42:58;;;;;;;11.10;6.87;;;19.20;99.90;;;;;;5072450;28;20625;-74
2023/10/02 00:45:30;;;;;;;13.83;7.30;;;19.10;99.90;;;;;;5072239;28;20593;-75
2023/10/02 00:48:24;;;;;;;11.63;7.87;;;19.10;99.90;;;;;;5074587;23;20670;-78
2023/10/02 00:50:49;;;;;;;10.97;6.43;;;19.10;99.90;;;;;;5052314;28;20643;-78
2023/10/02 00:53:21;;;;;;;12.83;7.07;;;19.10;99.90;;;;;;5052503;28;21216;-78
2023/10/02 00:55:51;;;;;;;12.47;8.10;;;19.10;99.90;;;;;;5035587;28;21208;-78
2023/10/02 00:58:19;;;;;;;11.63;7.10;;;19.00;99.90;;;;;;5052092;28;20705;-78
2023/10/02 01:00:50;;;;;;;13.00;7.30;;;19.00;99.90;;;;;;5052387;28;20586;-78
2023/10/02 01:03:16;;;;;;;12.47;6.50;;;19.00;99.90;;;;;;5056058;28;20636;-78
2023/10/02 01:05:50;;;;;;;13.33;6.90;;;19.00;99.90;;;;;;5036697;28;20994;-78
2023/10/02 01:08:23;;;;;;;11.37;7.73;;;19.00;99.90;;;;;;5074389;28;21182;-79
2023/10/02 01:10:56;;;;;;;10.67;7.60;;;18.90;99.90;;;;;;5039686;28;21182;-78
2023/10/02 01:13:34;;;;;;;12.67;7.33;;;18.90;99.90;;;;;;5055999;28;20686;-78
2023/10/02 01:16:11;;;;;;;9.83;6.40;;;18.90;99.90;;;;;;5055697;28;20673;-78
2023/10/02 01:18:39;;;;;;;12.77;7.47;;;18.90;99.90;;;;;;5055484;28;21000;-78
2023/10/02 01:21:11;;;;;;;11.10;7.13;;;18.90;99.90;;;;;;5056180;28;20632;-78
2023/10/02 01:24:09;;;;;;;11.37;6.33;;;18.80;99.90;;;;;;5022916;28;20625;-78
2023/10/02 01:26:38;;;;;;;14.27;7.30;;;18.80;99.90;;;;;;5055759;28;20642;-78
2023/10/02 01:29:06;;;;;;;13.90;8.37;;;18.80;99.90;;;;;;5055900;28;20637;-78
2023/10/02 01:31:36;;;;;;;13.03;8.23;;;18.80;99.90;;;;;;5039011;28;20617;-78
2023/10/02 01:34:05;;;;;;;16.50;9.00;;;18.70;99.90;;;;;;5055835;28;20651;-78
2023/10/02 01:36:34;;;;;;;13.30;7.10;;;18.70;99.90;;;;;;5038798;28;20667;-78
2023/10/02 01:39:13;;;;;;;12.20;7.03;;;18.70;99.90;;;;;;5055960;28;21131;-78
2023/10/02 01:41:52;;;;;;;10.77;6.87;;;18.60;99.90;;;;;;5039185;28;20590;-78
2023/10/02 01:44:22;;;;;;;12.10;7.90;;;18.60;99.90;;;;;;5055759;28;20593;-78
2023/10/02 01:46:49;;;;;;;10.53;6.83;;;18.60;99.90;;;;;;5047138;28;20684;-78
2023/10/02 01:49:25;;;;;;;14.77;8.27;;;18.60;99.90;;;;;;5055527;28;20622;-78
2023/10/02 01:52:07;;;;;;;11.70;6.60;;;18.60;99.90;;;;;;5038883;28;20578;-78
2023/10/02 01:54:35;;;;;;;14.03;8.33;;;18.50;99.90;;;;;;5055679;28;20614;-78
2023/10/02 01:57:03;;;;;;;12.20;7.90;;;18.50;99.90;;;;;;5055191;28;20603;-78
2023/10/02 01:59:30;;;;;;;13.67;8.73;;;18.50;99.90;;;;;;5038851;28;20587;-78
2023/10/02 02:01:57;;;;;;;14.10;8.97;;;18.50;99.90;;;;;;5055722;28;20587;-78
2023/10/02 02:04:24;;;;;;;14.67;8.00;;;18.50;99.90;;;;;;5023148;28;20204;-78
2023/10/02 02:06:56;;;;;;;11.83;7.83;;;18.50;99.90;;;;;;5031634;28;20661;-78
2023/10/02 02:09:33;;;;;;;14.53;8.83;;;18.40;99.90;;;;;;5074815;28;20626;-78
2023/10/02 02:12:07;;;;;;;11.03;7.23;;;18.40;99.90;;;;;;5040182;28;20586;-78
2023/10/02 02:14:41;;;;;;;11.60;6.70;;;18.40;99.90;;;;;;5040002;28;20586;-78
2023/10/02 02:17:10;;;;;;;14.37;7.50;;;18.30;99.90;;;;;;5038919;28;20594;-78
2023/10/02 02:19:48;;;;;;;9.67;6.07;;;18.30;99.90;;;;;;5038392;28;21151;-77
2023/10/02 02:22:18;;;;;;;16.53;7.97;;;18.30;99.90;;;;;;5073779;28;20589;-78
2023/10/02 02:24:44;;;;;;;12.63;7.30;;;18.30;99.90;;;;;;5039008;28;20570;-78
2023/10/02 02:27:11;;;;;;;14.93;9.37;;;18.30;99.90;;;;;;5054856;28;20659;-77
2023/10/02 02:29:38;;;;;;;14.00;7.90;;;18.30;99.90;;;;;;5054590;28;20634;-78
2023/10/02 02:32:06;;;;;;;13.57;7.70;;;18.30;99.90;;;;;;5054877;28;20587;-78
2023/10/02 02:34:32;;;;;;;12.70;6.93;;;18.20;99.90;;;;;;5054817;28;20643;-78
2023/10/02 02:36:59;;;;;;;13.17;9.00;;;18.20;99.90;;;;;;5053994;28;20598;-78
2023/10/02 02:39:27;;;;;;;11.57;7.47;;;18.20;99.90;;;;;;5037737;28;20591;-78
2023/10/02 02:44:49;;;;;;;15.10;9.20;;;18.10;99.90;;;;;;5054396;28;20615;-78
2023/10/02 02:47:17;;;;;;;14.20;8.60;;;18.10;99.90;;;;;;5036892;28;20626;-78
2023/10/02 02:50:00;;;;;;;14.03;9.40;;;18.10;99.90;;;;;;5054154;28;20642;-78
2023/10/02 02:52:32;;;;;;;14.30;8.60;;;18.10;99.90;;;;;;5072068;28;20574;-77
2023/10/02 02:55:04;;;;;;;13.30;7.80;;;18.10;99.90;;;;;;5082507;28;20594;-78
2023/10/02 02:57:38;;;;;;;14.17;9.03;;;18.10;99.90;;;;;;5068788;28;20678;-77
2023/10/02 03:02:55;;;;;;;14.83;8.93;;;18.00;99.90;;;;;;5045976;28;20601;-78
2023/10/02 03:05:22;;;;;;;14.40;8.87;;;18.00;99.90;;;;;;5053706;28;20586;-78
2023/10/02 03:07:54;;;;;;;12.07;6.97;;;18.00;99.90;;;;;;5053934;28;20606;-78
2023/10/02 03:10:23;;;;;;;14.70;8.60;;;18.00;99.90;;;;;;5071857;28;20634;-77
2023/10/02 03:12:48;;;;;;;13.03;7.73;;;18.00;99.90;;;;;;5036993;28;20636;-77
2023/10/02 03:15:19;;;;;;;14.03;9.00;;;18.00;99.90;;;;;;5036835;28;20582;-78
2023/10/02 03:17:46;;;;;;;11.37;7.10;;;17.90;99.90;;;;;;5052987;28;20224;-78
2023/10/02 03:20:25;;;;;;;14.97;8.90;;;17.90;99.90;;;;;;5071302;28;20636;-78
2023/10/02 03:22:54;;;;;;;14.20;8.67;;;17.90;99.90;;;;;;5053438;28;20582;-78
2023/10/02 03:25:40;;;;;;;14.97;9.53;;;17.90;99.90;;;;;;5053238;28;20590;-78
2023/10/02 03:28:16;;;;;;;13.00;8.60;;;17.80;99.90;;;;;;5071263;28;20598;-77
2023/10/02 03:30:47;;;;;;;12.07;8.40;;;17.80;99.90;;;;;;5071253;28;20585;-77
2023/10/02 03:33:23;;;;;;;16.03;9.23;;;17.80;99.90;;;;;;5053400;28;20598;-77
2023/10/02 03:36:09;;;;;;;18.17;9.13;;;17.80;99.90;;;;;;5053091;28;20594;-77
2023/10/02 03:38:41;;;;;;;14.63;8.27;;;17.80;99.90;;;;;;5070975;28;20966;-77
2023/10/02 03:41:13;;;;;;;11.63;8.60;;;17.80;99.90;;;;;;5053153;28;20586;-78
2023/10/02 03:43:48;;;;;;;16.90;8.40;;;17.80;99.90;;;;;;5053080;28;20575;-78
2023/10/02 03:46:22;;;;;;;12.67;8.57;;;17.80;99.90;;;;;;5070580;28;20997;-78
2023/10/02 03:48:58;;;;;;;13.40;7.70;;;17.70;99.90;;;;;;5053008;28;20637;-78
2023/10/02 03:51:36;;;;;;;11.77;6.80;;;17.70;99.90;;;;;;5070880;28;20589;-78
2023/10/02 03:54:23;;;;;;;14.20;7.80;;;17.70;99.90;;;;;;5052987;28;20590;-77
2023/10/02 03:56:50;;;;;;;13.97;8.80;;;17.70;99.90;;;;;;5070642;28;20670;-78
2023/10/02 03:59:17;;;;;;;11.93;7.87;;;17.70;99.90;;;;;;5070393;28;20611;-78
2023/10/02 04:01:43;;;;;;;13.50;8.70;;;17.70;99.90;;;;;;5052730;28;20586;-78
2023/10/02 04:06:47;;;;;;;12.23;7.83;;;17.60;99.90;;;;;;5070697;28;20629;-78
2023/10/02 04:09:23;;;;;;;14.73;8.00;;;17.60;99.90;;;;;;5052676;28;20792;-77
2023/10/02 04:11:53;;;;;;;13.00;7.97;;;17.60;99.90;;;;;;5052548;28;20594;-77
2023/10/02 04:14:32;;;;;;;16.17;10.03;;;17.60;99.90;;;;;;5052544;28;21185;-77
2023/10/02 04:19:48;;;;;;;12.73;7.67;;;17.60;99.90;;;;;;5070497;28;20578;-77
2023/10/02 04:22:22;;;;;;;12.83;7.47;;;17.60;99.90;;;;;;5052384;28;20584;-77
2023/10/02 04:24:58;;;;;;;11.57;7.67;;;17.60;99.90;;;;;;5052550;28;21175;-78
2023/10/02 04:28:00;;;;;;;13.23;7.40;;;17.50;99.90;;;;;;5070491;28;20641;-78
2023/10/02 04:32:49;;;;;;;11.40;7.70;;;17.50;99.90;;;;;;5052242;28;20587;-78
2023/10/02 04:38:09;;;;;;;12.43;7.20;;;17.50;99.90;;;;;;5051654;28;20662;-78
2023/10/02 04:40:51;;;;;;;13.13;7.87;;;17.50;99.90;;;;;;5072347;28;20579;-78
2023/10/02 04:43:25;;;;;;;10.53;7.10;;;17.50;99.90;;;;;;5041132;28;21190;-78
2023/10/02 04:46:14;;;;;;;11.70;7.40;;;17.50;99.90;;;;;;5056285;28;20597;-78
2023/10/02 04:48:42;;;;;;;13.13;8.30;;;17.50;99.90;;;;;;5074220;28;20725;-78
2023/10/02 04:51:12;;;;;;;12.80;7.60;;;17.50;99.90;;;;;;5057106;28;20578;-78
2023/10/02 04:53:42;;;;;;;10.77;7.07;;;17.50;99.90;;;;;;5041389;28;21005;-78
2023/10/02 04:58:51;;;;;;;13.67;8.27;;;17.40;99.90;;;;;;5056216;28;21177;-78
2023/10/02 05:01:29;;;;;;;12.70;7.23;;;17.40;99.90;;;;;;5056175;28;20690;-78
2023/10/02 05:04:01;;;;;;;12.07;7.33;;;17.40;99.90;;;;;;5056251;28;20597;-78
2023/10/02 05:06:52;;;;;;;12.07;6.90;;;17.40;99.90;;;;;;5055991;28;20687;-78
2023/10/02 05:09:25;;;;;;;14.90;9.63;;;17.40;99.90;;;;;;5074197;28;20691;-78
2023/10/02 05:11:57;;;;;;;14.70;9.00;;;17.40;99.90;;;;;;5056024;28;20590;-77
2023/10/02 05:14:26;;;;;;;15.90;8.80;;;17.40;99.90;;;;;;5056049;28;20590;-78
2023/10/02 05:20:15;;;;;;;13.77;7.93;;;17.40;99.90;;;;;;5039549;28;20578;-78
2023/10/02 05:22:36;;;;;;;14.20;7.33;;;17.40;99.90;;;;;;5072579;28;20590;-78
2023/10/02 05:25:07;;;;;;;14.90;7.90;;;17.40;99.90;;;;;;5073807;28;20593;-78
2023/10/02 05:27:36;;;;;;;17.07;8.00;;;17.40;99.90;;;;;;5055944;28;20611;-77
2023/10/02 05:30:17;;;;;;;17.63;8.23;;;17.40;99.90;;;;;;5048205;28;21031;-78
2023/10/02 05:32:43;;;;;;;14.67;7.87;;;17.40;99.90;;;;;;5055674;28;20593;-78
2023/10/02 05:37:45;;;;;;;14.27;8.93;;;17.40;99.90;;;;;;5054864;28;20701;-78
2023/10/02 05:48:07;;;;;;;15.47;8.83;;;17.40;99.90;;;;;;5047529;28;20642;-78
2023/10/02 05:50:40;;;;;;;13.20;7.50;;;17.40;99.90;;;;;;5055198;28;20570;-78
2023/10/02 05:53:06;;;;;;;13.50;8.83;;;17.40;99.90;;;;;;5048056;28;20582;-80
2023/10/02 05:55:57;;;;;;;12.90;8.17;;;17.40;99.90;;;;;;5056159;28;20590;-80
2023/10/02 05:58:37;;;;;;;12.80;8.03;;;17.40;99.90;;;;;;5067500;28;21009;-81
2023/10/02 06:01:05;;;;;;;12.00;7.40;;;17.50;99.90;;;;;;5043072;28;20600;-81
2023/10/02 06:03:37;;;;;;;10.50;6.33;;;17.50;99.90;;;;;;5067999;28;20943;-81
2023/10/02 06:06:15;;;;;;;14.37;8.37;;;17.50;99.90;;;;;;5073254;28;20563;-82
2023/10/02 06:08:48;;;;;;;13.63;7.87;;;17.50;99.90;;;;;;5055286;28;20622;-81
2023/10/02 06:11:34;;;;;;;13.93;8.13;;;17.60;99.90;;;;;;5055440;28;20591;-81
2023/10/02 06:14:10;;;;;;;15.97;8.33;;;17.60;99.90;;;;;;5073204;28;20702;-82
2023/10/02 06:16:40;;;;;;;12.60;8.57;;;17.60;99.90;;;;;;5054725;28;20622;-81
2023/10/02 06:19:13;;;;;;;15.23;8.70;;;17.60;99.90;;;;;;5057289;28;20571;-82
2023/10/02 06:22:04;;;;;;;11.50;8.20;;;17.70;99.90;;;;;;5054874;28;20622;-81
2023/10/02 06:24:31;;;;;;;18.40;9.73;;;17.70;99.90;;;;;;5070335;28;21031;-80
2023/10/02 06:26:57;;;;;;;12.37;7.90;;;17.80;99.90;;;;;;5037715;28;20693;-80
2023/10/02 06:29:37;;;;;;;15.17;8.23;;;17.80;99.90;;;;;;5054635;28;21206;-81
2023/10/02 06:32:11;;;;;;;15.70;8.30;;;17.90;99.90;;;;;;5072977;28;20946;-80
2023/10/02 06:34:39;;;;;;;14.97;9.77;;;17.90;99.90;;;;;;5038091;28;21215;-80
2023/10/02 06:37:16;;;;;;;13.53;9.00;;;17.90;99.90;;;;;;5046069;28;20610;-80
2023/10/02 06:39:47;;;;;;;15.60;8.60;;;18.00;99.90;;;;;;5072457;28;20594;-83
2023/10/02 06:42:16;;;;;;;14.83;9.03;;;18.10;99.90;;;;;;5072507;28;20597;-79
2023/10/02 06:44:55;;;;;;;15.17;9.03;;;18.10;99.90;;;;;;5054322;28;20652;-80
2023/10/02 06:47:28;;;;;;;12.93;8.60;;;18.20;99.90;;;;;;5054390;28;20625;-79
2023/10/02 06:50:02;;;;;;;14.17;8.90;;;18.30;99.90;;;;;;5072564;28;21198;-80
2023/10/02 06:52:33;;;;;;;13.00;8.97;;;18.40;99.90;;;;;;5054411;28;20985;-80
2023/10/02 06:55:01;;;;;;;13.73;8.10;;;18.40;99.90;;;;;;5054814;28;20582;-82
2023/10/02 06:57:28;;;;;;;13.23;8.80;;;18.50;99.90;;;;;;5059040;28;20618;-80
2023/10/02 06:59:54;;;;;;;13.20;8.30;;;18.60;99.90;;;;;;5075410;28;20575;-79
2023/10/02 07:02:23;;;;;;;13.27;7.93;;;18.70;99.90;;;;;;5072194;28;20674;-80
2023/10/02 07:04:50;;;;;;;12.60;8.33;;;18.70;99.90;;;;;;5072758;28;20644;-78
2023/10/02 07:07:25;;;;;;;13.90;9.13;;;18.80;99.90;;;;;;5053796;28;20633;-78
2023/10/02 07:10:02;;;;;;;13.30;7.90;;;18.80;99.90;;;;;;5057226;28;20686;-78
2023/10/02 07:12:32;;;;;;;17.53;8.47;;;18.90;99.90;;;;;;5071409;28;20610;-79
2023/10/02 07:15:10;;;;;;;22.07;10.53;;;18.90;99.90;;;;;;5071614;28;20621;-79
2023/10/02 07:17:47;;;;;;;13.63;7.63;;;19.00;99.90;;;;;;5037356;28;20611;-79
2023/10/02 07:20:15;;;;;;;12.70;8.10;;;19.10;99.90;;;;;;5054166;28;20637;-80
2023/10/02 07:22:43;;;;;;;14.90;8.20;;;19.10;99.90;;;;;;5054314;28;20579;-77
2023/10/02 07:25:09;;;;;;;14.20;9.00;;;19.20;99.90;;;;;;5071410;28;20639;-76
2023/10/02 07:27:37;;;;;;;12.17;7.60;;;19.30;99.90;;;;;;5034494;28;20722;-78
2023/10/02 07:30:05;;;;;;;12.03;8.40;;;19.40;99.90;;;;;;5070925;28;21094;-78
2023/10/02 07:32:34;;;;;;;14.73;8.27;;;19.60;99.90;;;;;;5053235;28;20742;-77
2023/10/02 07:35:52;;;;;;;13.07;7.77;;;19.70;99.90;;;;;;5053278;28;20585;-78
2023/10/02 07:37:57;;;;;;;16.07;9.37;;;19.90;99.90;;;;;;5052156;28;20603;-79
2023/10/02 07:40:46;;;;;;;13.87;8.13;;;20.20;99.90;;;;;;5070795;28;20586;-82
2023/10/02 07:43:18;;;;;;;15.23;8.90;;;20.70;99.90;;;;;;5053774;28;20635;-81
2023/10/02 07:45:45;;;;;;;13.63;7.63;;;21.40;99.90;;;;;;5055725;28;20586;-81
2023/10/02 07:48:12;;;;;;;11.97;8.17;;;22.00;99.90;;;;;;5068644;28;20628;-81
2023/10/02 07:50:44;;;;;;;14.67;8.60;;;22.70;99.90;;;;;;5070842;28;20583;-82
2023/10/02 07:53:12;;;;;;;12.47;7.50;;;23.30;99.90;;;;;;5053735;28;20638;-82
2023/10/02 07:55:46;;;;;;;11.33;7.83;;;23.90;99.90;;;;;;5071217;28;20583;-81
2023/10/02 07:58:13;;;;;;;10.33;7.70;;;24.60;99.90;;;;;;5053588;28;21204;-81
2023/10/02 08:00:43;;;;;;;10.70;6.90;;;25.30;99.90;;;;;;5071099;28;20660;-82
2023/10/02 08:05:58;;;;;;;13.17;8.13;;;26.50;99.90;;;;;;5070824;28;20584;-81
2023/10/02 08:08:33;;;;;;;13.27;7.27;;;26.90;99.90;;;;;;5071110;28;20663;-81
2023/10/02 08:11:06;;;;;;;10.57;7.60;;;27.40;99.90;;;;;;5036616;28;20633;-81
2023/10/02 08:13:35;;;;;;;14.70;6.93;;;27.80;99.90;;;;;;5036622;28;20590;-81
2023/10/02 08:16:07;;;;;;;13.77;8.17;;;28.40;99.90;;;;;;5052705;28;20595;-81
2023/10/02 08:18:33;;;;;;;8.97;6.57;;;28.90;99.90;;;;;;5071721;28;20666;-81
2023/10/02 08:21:01;;;;;;;10.87;7.30;;;29.20;99.90;;;;;;5074295;28;20607;-81
2023/10/02 08:23:27;;;;;;;12.53;7.13;;;29.60;99.90;;;;;;5076953;28;20584;-81
2023/10/02 08:26:03;;;;;;;12.50;8.37;;;29.80;99.90;;;;;;5071740;28;21162;-82
2023/10/02 08:28:36;;;;;;;11.77;8.00;;;30.20;99.90;;;;;;5073740;28;20603;-82
2023/10/02 08:31:02;;;;;;;12.83;6.43;;;30.30;99.90;;;;;;5054860;28;20803;-81
2023/10/02 08:33:33;;;;;;;10.20;7.17;;;30.40;99.90;;;;;;5057485;28;20584;-81
2023/10/02 08:36:01;;;;;;;9.17;7.10;;;30.70;99.90;;;;;;5063553;28;20597;-81
2023/10/02 08:38:27;;;;;;;10.77;7.00;;;30.90;99.90;;;;;;5087550;28;20607;-82
2023/10/02 08:41:02;;;;;;;13.10;8.13;;;31.10;99.90;;;;;;5072316;28;20650;-81
2023/10/02 08:43:32;;;;;;;12.13;7.23;;;31.10;99.90;;;;;;5087117;28;20602;-81
2023/10/02 08:45:58;;;;;;;8.27;6.57;;;31.20;98.60;;;;;;5088730;28;20606;-81
2023/10/02 08:48:25;;;;;;;10.73;8.97;;;31.20;98.80;;;;;;5077515;28;20971;-80
2023/10/02 08:50:58;;;;;;;9.43;6.80;;;31.30;98.80;;;;;;5076754;28;20582;-81
2023/10/02 08:53:25;;;;;;;13.60;9.00;;;31.50;98.10;;;;;;5061220;28;20593;-80
2023/10/02 08:56:00;;;;;;;9.10;6.90;;;31.60;96.70;;;;;;5058160;28;20654;-81
2023/10/02 08:58:27;;;;;;;11.00;7.87;;;31.60;96.40;;;;;;5064784;28;20599;-81
2023/10/02 09:03:43;;;;;;;10.93;7.60;;;31.60;94.80;;;;;;5071644;28;20582;-81
2023/10/02 09:09:17;;;;;;;11.23;7.97;;;31.90;94.30;;;;;;5061404;28;20625;-83
2023/10/02 09:11:51;;;;;;;13.93;8.27;;;32.30;93.40;;;;;;5054796;28;20624;-83
2023/10/02 09:16:46;;;;;;;9.77;7.57;;;32.40;90.70;;;;;;5074621;28;20687;-81
2023/10/02 09:19:30;;;;;;;10.77;7.03;;;32.60;91.40;;;;;;5066714;28;20599;-81
2023/10/02 09:22:06;;;;;;;11.83;9.13;;;33.10;91.40;;;;;;5071856;28;20647;-81
2023/10/02 09:24:35;;;;;;;10.73;7.03;;;33.70;91.30;;;;;;5071391;28;20593;-80
2023/10/02 09:27:23;;;;;;;9.47;7.30;;;34.10;89.20;;;;;;5054343;28;20702;-80
2023/10/02 09:33:07;;;;;;;10.90;7.97;;;34.20;86.10;;;;;;5032425;28;20590;-77
2023/10/02 09:35:44;;;;;;;11.10;8.10;;;34.50;83.00;;;;;;5056356;28;20597;-77
2023/10/02 09:38:10;;;;;;;11.67;9.03;;;34.40;79.50;;;;;;5071527;28;20610;-77
2023/10/02 09:43:25;;;;;;;10.50;6.87;;;34.40;77.50;;;;;;5046838;28;20673;-77
2023/10/02 09:45:56;;;;;;;9.73;7.67;;;34.60;78.40;;;;;;5053531;28;20629;-77
2023/10/02 09:51:26;;;;;;;11.47;9.70;;;35.00;76.20;;;;;;5055414;28;20586;-77
2023/10/02 09:54:13;;;;;;;11.20;8.27;;;34.90;72.30;;;;;;5073217;28;20578;-77
2023/10/02 09:57:11;;;;;;;11.37;7.70;;;34.70;69.30;;;;;;5055281;28;20606;-77
2023/10/02 09:59:47;;;;;;;10.70;7.07;;;34.60;71.20;;;;;;5073252;28;20585;-77
2023/10/02 10:05:02;;;;;;;12.93;7.43;;;34.60;70.70;;;;;;5055209;28;20621;-77
2023/10/02 10:07:51;;;;;;;12.97;8.80;;;34.50;69.20;;;;;;5054934;28;20650;-77
2023/10/02 10:11:15;;;;;;;12.73;8.70;;;34.40;69.50;;;;;;5055135;28;20634;-77
2023/10/02 10:13:27;;;;;;;12.00;7.80;;;34.20;67.60;;;;;;5050815;28;20599;-77
2023/10/02 10:16:23;;;;;;;9.10;7.83;;;34.10;69.00;;;;;;5072886;28;20575;-77
2023/10/02 10:19:22;;;;;;;10.90;7.83;;;33.90;68.80;;;;;;5038251;28;20673;-77
2023/10/02 10:21:56;;;;;;;12.23;8.00;;;33.70;67.80;;;;;;5054614;28;20675;-77
2023/10/02 10:24:51;;;;;;;10.20;7.70;;;33.60;69.10;;;;;;5072893;28;20578;-77
2023/10/02 10:27:38;;;;;;;9.07;7.30;;;33.50;67.70;;;;;;5054590;28;20621;-77
2023/10/02 10:35:36;;;;;;;9.80;7.47;;;33.00;67.70;;;;;;5072254;28;20681;-77
2023/10/02 10:38:36;;;;;;;9.73;7.37;;;32.90;68.50;;;;;;5053057;28;20686;-77
2023/10/02 10:41:14;;;;;;;9.83;7.10;;;33.00;69.00;;;;;;5072509;28;20238;-77
2023/10/02 10:46:17;;;;;;;9.77;7.67;;;33.30;68.50;;;;;;5071532;28;21194;-77
2023/10/02 10:48:53;;;;;;;12.57;8.33;;;33.30;67.50;;;;;;5056878;28;20699;-77
2023/10/02 10:51:22;;;;;;;11.67;8.83;;;33.10;66.10;;;;;;5054175;28;20372;-77
2023/10/02 10:53:52;;;;;;;11.40;7.97;;;32.90;65.70;;;;;;5054124;28;20594;-77
2023/10/02 10:56:19;;;;;;;9.53;7.50;;;32.90;66.20;;;;;;5053898;28;20655;-77
2023/10/02 10:58:52;;;;;;;12.30;8.23;;;32.90;66.30;;;;;;5054410;28;20622;-77
2023/10/02 11:01:20;;;;;;;10.77;7.80;;;32.80;66.10;;;;;;5054045;28;20594;-77
2023/10/02 11:03:54;;;;;;;9.73;7.77;;;32.90;66.20;;;;;;5072011;28;20604;-77
2023/10/02 11:06:22;;;;;;;9.37;7.50;;;32.90;67.00;;;;;;5053584;28;20602;-77
2023/10/02 11:09:11;;;;;;;10.20;7.20;;;33.20;67.80;;;;;;5053892;28;20650;-77
2023/10/02 11:11:49;;;;;;;10.17;7.50;;;33.20;66.40;;;;;;5071698;28;20571;-77
2023/10/02 11:14:22;;;;;;;11.47;8.27;;;33.30;66.70;;;;;;5053864;28;20578;-77
2023/10/02 11:16:55;;;;;;;8.57;6.63;;;33.30;66.90;;;;;;5053565;28;20816;-77
2023/10/02 11:22:15;;;;;;;10.03;8.17;;;33.80;67.10;;;;;;5071653;28;20598;-77
2023/10/02 11:24:42;;;;;;;10.43;7.87;;;34.00;66.60;;;;;;5054109;28;20594;-77
2023/10/02 11:27:10;;;;;;;10.53;7.40;;;34.10;65.90;;;;;;5075759;28;20634;-77
2023/10/02 11:29:45;;;;;;;11.17;8.43;;;34.00;65.10;;;;;;5036879;28;20684;-77
2023/10/02 11:32:45;;;;;;;14.57;8.43;;;34.10;64.60;;;;;;5071332;28;20680;-77
2023/10/02 11:35:05;;;;;;;9.93;6.60;;;34.10;64.20;;;;;;5067725;28;20686;-77
2023/10/02 11:37:31;;;;;;;10.33;7.33;;;34.20;64.30;;;;;;5053393;28;20613;-77
2023/10/02 11:39:58;;;;;;;10.50;8.30;;;34.20;63.90;;;;;;5053213;28;20582;-77
2023/10/02 11:42:24;;;;;;;11.63;8.27;;;34.30;63.80;;;;;;5071180;28;20581;-77
2023/10/02 11:44:49;;;;;;;10.90;8.40;;;34.40;62.90;;;;;;5071293;28;20574;-77
2023/10/02 11:47:15;;;;;;;15.17;9.03;;;34.40;62.20;;;;;;5052705;28;21947;-77
2023/10/02 11:49:42;;;;;;;14.80;9.57;;;34.30;61.10;;;;;;5070721;28;20304;-77
2023/10/02 11:52:08;;;;;;;15.90;9.77;;;34.20;59.80;;;;;;5070930;28;20176;-77
2023/10/02 11:54:39;;;;;;;13.00;8.20;;;34.00;59.70;;;;;;5053059;28;20574;-77
2023/10/02 11:57:10;;;;;;;11.63;8.50;;;33.80;59.60;;;;;;5052742;28;20610;-77
2023/10/02 11:59:37;;;;;;;11.73;8.20;;;33.50;59.10;;;;;;5071009;28;20625;-77
2023/10/02 12:02:04;;;;;;;11.37;8.40;;;33.20;59.00;;;;;;5072704;28;20618;-77
2023/10/02 12:04:31;;;;;;;12.13;8.63;;;32.90;59.10;;;;;;5071721;28;20624;-77
2023/10/02 12:06:57;;;;;;;11.10;8.00;;;32.70;59.30;;;;;;5070483;28;20629;-77
2023/10/02 12:09:23;;;;;;;10.10;7.93;;;32.50;59.60;;;;;;5070998;28;20633;-77
2023/10/02 12:11:49;;;;;;;11.73;8.47;;;32.40;60.20;;;;;;5071004;28;20971;-77
2023/10/02 12:14:14;;;;;;;10.40;8.27;;;32.40;60.60;;;;;;5053024;28;20182;-77
2023/10/02 12:16:41;;;;;;;10.47;7.57;;;32.30;60.90;;;;;;5070748;28;20286;-76
2023/10/02 12:19:10;;;;;;;10.43;7.73;;;32.30;61.50;;;;;;5070717;28;20193;-77
2023/10/02 12:21:36;;;;;;;12.00;7.83;;;32.40;61.50;;;;;;5074554;23;20664;-78
2023/10/02 12:24:05;;;;;;;11.53;8.00;;;32.40;61.20;;;;;;5070829;28;20589;-77
2023/10/02 12:26:30;;;;;;;11.80;8.73;;;32.30;61.20;;;;;;5070617;28;20581;-78
2023/10/02 12:28:56;;;;;;;14.50;8.80;;;32.30;61.20;;;;;;5036186;28;20647;-77
2023/10/02 12:31:23;;;;;;;11.20;7.87;;;32.30;61.30;;;;;;5052449;28;20200;-77
2023/10/02 12:33:56;;;;;;;12.23;8.30;;;32.20;61.50;;;;;;5036024;28;20189;-78
2023/10/02 12:36:23;;;;;;;11.00;7.40;;;32.20;61.60;;;;;;5052292;28;21206;-76
2023/10/02 12:38:50;;;;;;;10.53;7.43;;;32.10;61.70;;;;;;5070712;28;20625;-77
2023/10/02 12:41:28;;;;;;;13.67;9.47;;;32.00;61.60;;;;;;5052505;28;20647;-75
2023/10/02 12:43:58;;;;;;;11.17;7.87;;;31.70;61.60;;;;;;5052751;28;20590;-76
2023/10/02 12:46:30;;;;;;;17.03;8.40;;;31.70;62.40;;;;;;5055784;28;20583;-77
2023/10/02 12:48:57;;;;;;;11.57;8.20;;;31.70;62.80;;;;;;5070714;28;20639;-76
2023/10/02 12:51:27;;;;;;;14.20;8.50;;;31.70;62.80;;;;;;5055110;28;21248;-76
2023/10/02 12:53:54;;;;;;;10.40;7.93;;;31.60;62.70;;;;;;5052822;28;20575;-77
2023/10/02 12:56:21;;;;;;;11.23;7.80;;;31.50;63.00;;;;;;5070228;28;20587;-76
2023/10/02 12:58:48;;;;;;;12.87;8.43;;;31.30;63.10;;;;;;5070556;28;20587;-77
2023/10/02 13:01:27;;;;;;;13.50;8.90;;;31.30;63.40;;;;;;5053791;28;20666;-77
2023/10/02 13:03:54;;;;;;;13.77;9.17;;;31.00;63.20;;;;;;5056521;28;20590;-75
2023/10/02 13:06:21;;;;;;;13.00;8.97;;;30.90;63.20;;;;;;5056174;28;20586;-75
2023/10/02 13:08:47;;;;;;;12.40;9.33;;;30.70;63.20;;;;;;5039759;28;21214;-76
2023/10/02 13:11:18;;;;;;;11.23;8.40;;;30.50;63.70;;;;;;5074075;28;20741;-75
2023/10/02 13:13:46;;;;;;;14.20;8.80;;;30.30;63.90;;;;;;5056430;28;20171;-76
2023/10/02 13:16:13;;;;;;;13.30;8.53;;;30.20;64.10;;;;;;5055892;28;20669;-76
2023/10/02 13:18:40;;;;;;;11.63;8.47;;;30.10;64.60;;;;;;5074141;28;20574;-76
2023/10/02 13:21:09;;;;;;;12.30;8.27;;;30.10;65.00;;;;;;5073621;28;20720;-76
2023/10/02 13:23:39;;;;;;;15.17;9.20;;;30.00;65.50;;;;;;5074260;28;20929;-75
2023/10/02 13:26:06;;;;;;;12.43;9.17;;;29.90;66.30;;;;;;5055932;28;21364;-76
2023/10/02 13:28:34;;;;;;;11.80;8.20;;;29.90;66.00;;;;;;5060271;28;20595;-76
2023/10/02 13:31:13;;;;;;;13.30;8.30;;;29.80;66.40;;;;;;5055927;28;20717;-75
2023/10/02 13:33:47;;;;;;;14.47;8.93;;;29.80;67.00;;;;;;5073782;28;20618;-76
2023/10/02 13:36:14;;;;;;;12.50;8.40;;;29.80;67.10;;;;;;5073536;28;20703;-76
2023/10/02 13:38:41;;;;;;;12.07;8.57;;;29.90;67.20;;;;;;5073838;28;20978;-77
2023/10/02 13:41:10;;;;;;;11.77;8.10;;;29.80;67.50;;;;;;5073544;28;20649;-75
2023/10/02 13:43:48;;;;;;;13.90;8.93;;;29.90;68.00;;;;;;5073809;28;20598;-77
2023/10/02 13:46:16;;;;;;;12.50;7.30;;;29.90;68.00;;;;;;5073465;28;20578;-77
2023/10/02 13:48:45;;;;;;;11.63;8.00;;;30.00;68.10;;;;;;5055574;28;20644;-77
2023/10/02 13:51:18;;;;;;;11.60;7.60;;;29.90;68.30;;;;;;5055553;28;20618;-77
2023/10/02 13:53:45;;;;;;;10.87;7.07;;;30.00;68.50;;;;;;5073820;28;20678;-77
2023/10/02 13:56:20;;;;;;;11.97;7.87;;;30.10;68.70;;;;;;5038643;28;20582;-77
2023/10/02 13:58:48;;;;;;;13.77;9.07;;;30.10;68.90;;;;;;5073376;28;20597;-77
2023/10/02 14:01:15;;;;;;;14.87;10.50;;;30.10;68.80;;;;;;5055252;28;20622;-76
2023/10/02 14:03:45;;;;;;;12.13;8.30;;;30.10;68.90;;;;;;5074438;28;20586;-77
2023/10/02 14:06:12;;;;;;;12.80;8.20;;;30.20;68.90;;;;;;5075674;28;20614;-76
2023/10/02 14:08:41;;;;;;;11.60;8.03;;;30.20;68.80;;;;;;5073197;28;20582;-77
2023/10/02 14:11:10;;;;;;;11.40;8.00;;;30.20;68.90;;;;;;5072980;28;20960;-76